createdAt,value
2019-05-13T00:00:17.225Z,45.00
2019-05-13T00:02:47.119Z,45.00
2019-05-13T00:05:17.887Z,45.10
2019-05-13T00:07:47.573Z,45.10
2019-05-13T00:10:17.433Z,45.20
2019-05-13T00:12:47.209Z,45.20
2019-05-13T00:15:17.023Z,45.40
2019-05-13T00:17:46.791Z,45.80
2019-05-13T00:20:16.615Z,46.50
2019-05-13T00:22:46.471Z,46.60
2019-05-13T00:25:16.263Z,46.70
2019-05-13T00:27:46.004Z,46.60
2019-05-13T00:30:16.821Z,46.70
2019-05-13T00:32:46.625Z,46.60
2019-05-13T00:35:16.407Z,46.60
2019-05-13T00:37:46.094Z,46.80
2019-05-13T00:40:15.854Z,46.70
2019-05-13T00:42:45.629Z,46.50
2019-05-13T00:45:15.455Z,46.60
2019-05-13T00:47:45.267Z,46.70
2019-05-13T00:50:15.112Z,46.80
2019-05-13T00:52:46.122Z,47.00
2019-05-13T00:55:16.774Z,47.20
2019-05-13T00:57:46.565Z,47.30
2019-05-13T01:00:16.511Z,47.30
2019-05-13T01:02:46.230Z,47.40
2019-05-13T01:05:16.001Z,47.40
2019-05-13T01:07:45.782Z,47.40
2019-05-13T01:10:15.609Z,47.40
2019-05-13T01:12:45.343Z,47.40
2019-05-13T01:15:15.286Z,47.20
2019-05-13T01:17:45.115Z,47.30
2019-05-13T01:20:15.304Z,47.30
2019-05-13T01:22:45.015Z,47.60
2019-05-13T01:25:15.743Z,48.00
2019-05-13T01:27:45.437Z,47.80
2019-05-13T01:30:15.435Z,47.60
2019-05-13T01:32:45.211Z,47.50
2019-05-13T01:35:15.991Z,48.60
2019-05-13T01:37:46.299Z,49.70
2019-05-13T01:40:16.399Z,48.70
2019-05-13T01:42:46.192Z,47.90
2019-05-13T01:45:16.231Z,47.70
2019-05-13T01:47:46.004Z,47.90
2019-05-13T01:50:15.851Z,48.30
2019-05-13T01:52:45.582Z,47.80
2019-05-13T01:55:15.508Z,47.50
2019-05-13T01:57:45.244Z,46.80
2019-05-13T02:00:15.294Z,46.20
2019-05-13T02:02:45.070Z,45.60
2019-05-13T02:05:14.934Z,45.30
2019-05-13T02:07:56.836Z,45.10
2019-05-13T02:10:17.956Z,44.80
2019-05-13T02:12:48.688Z,44.80
2019-05-13T02:15:18.528Z,44.60
2019-05-13T02:17:48.228Z,44.30
2019-05-13T02:20:18.001Z,44.70
2019-05-13T02:22:47.823Z,45.70
2019-05-13T02:25:17.524Z,46.20
2019-05-13T02:27:47.455Z,46.40
2019-05-13T02:30:17.284Z,46.90
2019-05-13T02:32:46.991Z,47.70
2019-05-13T02:35:16.737Z,46.90
2019-05-13T02:37:46.430Z,46.40
2019-05-13T02:40:16.262Z,46.00
2019-05-13T02:42:45.991Z,45.60
2019-05-13T02:45:15.838Z,45.40
2019-05-13T02:47:45.633Z,45.10
2019-05-13T02:50:16.004Z,44.90
2019-05-13T02:52:45.720Z,44.60
2019-05-13T02:55:15.593Z,45.10
2019-05-13T02:57:45.308Z,45.70
2019-05-13T03:00:15.279Z,46.10
2019-05-13T03:02:45.004Z,46.30
2019-05-13T03:05:15.271Z,46.50
2019-05-13T03:07:45.139Z,46.70
2019-05-13T03:10:14.997Z,46.70
2019-05-13T03:12:44.697Z,46.70
2019-05-13T03:15:14.637Z,46.80
2019-05-13T03:18:03.474Z,46.80
2019-05-13T03:20:33.685Z,47.00
2019-05-13T03:23:03.533Z,47.00
2019-05-13T03:25:33.498Z,47.00
2019-05-13T03:28:03.560Z,47.20
2019-05-13T03:30:35.600Z,47.20
2019-05-13T03:33:10.942Z,47.20
2019-05-13T03:35:37.543Z,47.20
2019-05-13T03:38:07.455Z,47.30
2019-05-13T03:40:42.501Z,47.30
2019-05-13T03:43:12.897Z,47.30
2019-05-13T03:45:43.574Z,47.20
2019-05-13T03:48:13.572Z,46.80
2019-05-13T03:50:43.532Z,46.90
2019-05-13T03:53:13.442Z,47.60
2019-05-13T03:55:44.432Z,47.80
2019-05-13T03:58:14.378Z,47.30
2019-05-13T04:00:44.266Z,47.40
2019-05-13T04:03:14.089Z,48.10
2019-05-13T04:05:44.117Z,47.40
2019-05-13T04:08:16.425Z,47.30
2019-05-13T04:10:46.271Z,47.10
2019-05-13T04:13:16.223Z,47.10
2019-05-13T04:15:46.488Z,46.90
2019-05-13T04:18:16.332Z,46.60
2019-05-13T04:20:46.164Z,46.60
2019-05-13T04:23:16.517Z,46.30
2019-05-13T04:25:46.282Z,46.10
2019-05-13T04:28:15.992Z,46.10
2019-05-13T04:30:45.853Z,46.10
2019-05-13T04:33:15.601Z,45.90
2019-05-13T04:35:45.455Z,45.70
2019-05-13T04:38:15.141Z,45.70
2019-05-13T04:40:45.056Z,45.60
2019-05-13T04:43:14.847Z,45.70
2019-05-13T04:45:44.641Z,46.00
2019-05-13T04:48:14.503Z,46.00
2019-05-13T04:50:44.280Z,46.10
2019-05-13T04:53:14.155Z,46.20
2019-05-13T04:55:44.254Z,46.10
2019-05-13T04:58:14.106Z,45.90
2019-05-13T05:01:32.439Z,45.60
2019-05-13T05:04:24.261Z,45.40
2019-05-13T05:06:58.849Z,46.20
2019-05-13T05:13:17.157Z,45.90
2019-05-13T05:16:14.034Z,45.70
2019-05-13T05:19:12.295Z,45.70
2019-05-13T05:22:13.254Z,45.70
2019-05-13T05:24:55.150Z,45.90
2019-05-13T05:28:03.561Z,46.10
2019-05-13T05:31:05.157Z,46.20
2019-05-13T05:34:11.663Z,46.30
2019-05-13T05:37:13.976Z,46.40
2019-05-13T05:39:44.124Z,46.40
2019-05-13T05:42:15.619Z,46.40
2019-05-13T05:44:46.890Z,46.10
2019-05-13T05:47:17.255Z,46.00
2019-05-13T05:49:47.311Z,45.90
2019-05-13T05:52:21.245Z,46.00
2019-05-13T05:54:52.929Z,46.00
2019-05-13T05:57:25.974Z,46.00
2019-05-13T05:59:56.748Z,45.80
2019-05-13T06:02:27.998Z,45.90
2019-05-13T06:04:58.246Z,45.30
2019-05-13T06:07:28.206Z,45.90
2019-05-13T06:09:57.955Z,45.80
2019-05-13T06:12:28.075Z,45.80
2019-05-13T06:14:58.778Z,45.90
2019-05-13T06:17:28.577Z,45.90
2019-05-13T06:20:03.279Z,45.90
2019-05-13T06:22:32.105Z,45.60
2019-05-13T06:25:02.038Z,45.70
2019-05-13T06:27:31.919Z,45.90
2019-05-13T06:30:02.499Z,45.80
2019-05-13T06:32:32.543Z,45.70
2019-05-13T06:35:02.625Z,45.40
2019-05-13T06:37:35.646Z,45.30
2019-05-13T06:40:06.548Z,44.90
2019-05-13T06:42:36.397Z,44.70
2019-05-13T06:45:06.544Z,45.70
2019-05-13T06:47:36.405Z,45.60
2019-05-13T06:50:06.999Z,45.20
2019-05-13T06:52:36.784Z,45.60
2019-05-13T06:55:06.978Z,45.10
2019-05-13T06:57:36.677Z,45.00
2019-05-13T07:00:06.850Z,44.90
2019-05-13T07:02:36.554Z,44.80
2019-05-13T07:05:06.665Z,44.90
2019-05-13T07:07:36.482Z,44.80
2019-05-13T07:10:06.605Z,44.60
2019-05-13T07:12:36.316Z,44.60
2019-05-13T07:15:06.253Z,44.50
2019-05-13T07:17:35.963Z,44.50
2019-05-13T07:20:06.379Z,45.10
2019-05-13T07:22:36.148Z,44.50
2019-05-13T07:25:05.999Z,44.40
2019-05-13T07:27:35.962Z,44.60
2019-05-13T07:30:06.460Z,44.60
2019-05-13T07:32:36.185Z,44.60
2019-05-13T07:35:06.870Z,44.60
2019-05-13T07:37:41.785Z,44.70
2019-05-13T07:40:11.748Z,44.70
2019-05-13T07:42:42.057Z,44.80
2019-05-13T07:45:12.386Z,44.70
2019-05-13T07:47:42.160Z,45.00
2019-05-13T07:50:12.847Z,45.00
2019-05-13T07:52:42.746Z,44.00
2019-05-13T07:55:14.067Z,42.50
2019-05-13T07:57:44.841Z,41.90
2019-05-13T08:00:14.708Z,41.10
2019-05-13T08:02:44.424Z,39.90
2019-05-13T08:05:14.664Z,38.50
2019-05-13T08:07:45.416Z,36.70
2019-05-13T08:10:15.249Z,35.50
2019-05-13T08:12:45.046Z,34.00
2019-05-13T08:15:17.100Z,32.70
2019-05-13T08:17:47.663Z,32.20
2019-05-13T08:20:18.305Z,32.60
2019-05-13T08:22:48.038Z,32.60
2019-05-13T08:25:17.729Z,32.70
2019-05-13T08:27:47.424Z,32.50
2019-05-13T08:30:18.457Z,31.80
2019-05-13T08:32:49.375Z,32.10
2019-05-13T08:35:19.199Z,32.70
2019-05-13T08:37:48.966Z,33.50
2019-05-13T08:40:20.448Z,31.80
2019-05-13T08:42:52.001Z,32.20
2019-05-13T08:45:22.433Z,31.40
2019-05-13T08:47:52.230Z,31.80
2019-05-13T08:50:22.188Z,33.50
2019-05-13T08:52:51.911Z,29.90
2019-05-13T08:55:21.679Z,29.20
2019-05-13T08:57:55.139Z,28.10
2019-05-13T09:00:52.510Z,27.80
2019-05-13T09:03:44.617Z,29.10
2019-05-13T09:06:14.547Z,28.10
2019-05-13T09:08:56.069Z,30.00
2019-05-13T09:15:03.221Z,30.50
2019-05-13T09:17:32.040Z,31.00
2019-05-13T09:20:02.835Z,30.30
2019-05-13T09:22:32.781Z,30.40
2019-05-13T09:25:02.627Z,28.10
2019-05-13T09:27:33.352Z,29.30
2019-05-13T09:30:03.254Z,33.20
2019-05-13T09:32:33.039Z,28.50
2019-05-13T09:35:03.169Z,29.90
2019-05-13T09:37:33.012Z,30.50
2019-05-13T09:40:28.016Z,35.70
2019-05-13T09:42:57.709Z,36.10
2019-05-13T09:45:28.497Z,30.60
2019-05-13T09:47:58.262Z,30.40
2019-05-13T09:50:32.327Z,32.80
2019-05-13T09:53:02.529Z,30.80
2019-05-13T09:55:32.558Z,32.30
2019-05-13T09:58:02.562Z,32.80
2019-05-13T10:00:32.476Z,29.10
2019-05-13T10:03:02.306Z,33.60
2019-05-13T10:05:32.030Z,34.40
2019-05-13T10:08:02.441Z,36.40
2019-05-13T10:10:32.322Z,37.20
2019-05-13T10:13:09.297Z,36.00
2019-05-13T10:15:33.505Z,39.00
2019-05-13T10:18:03.345Z,38.40
2019-05-13T10:20:59.241Z,38.70
2019-05-13T10:23:32.459Z,38.40
2019-05-13T10:26:03.870Z,37.30
2019-05-13T10:28:34.021Z,38.10
2019-05-13T10:31:03.971Z,39.00
2019-05-13T10:33:33.822Z,40.00
2019-05-13T10:36:03.990Z,39.70
2019-05-13T10:38:33.843Z,40.40
2019-05-13T10:41:03.973Z,39.80
2019-05-13T10:43:40.183Z,39.10
2019-05-13T10:46:05.407Z,40.30
2019-05-13T10:48:35.263Z,41.20
2019-05-13T10:51:05.275Z,41.00
2019-05-13T10:53:35.093Z,40.90
2019-05-13T10:56:05.058Z,40.00
2019-05-13T10:58:34.830Z,41.40
2019-05-13T11:01:06.034Z,41.80
2019-05-13T11:03:35.722Z,41.90
2019-05-13T11:06:05.685Z,42.20
2019-05-13T11:08:35.447Z,42.10
2019-05-13T11:11:05.293Z,40.60
2019-05-13T11:13:50.442Z,41.80
2019-05-13T11:16:06.495Z,41.90
2019-05-13T11:18:36.309Z,42.20
2019-05-13T11:21:06.082Z,41.10
2019-05-13T11:23:35.773Z,42.30
2019-05-13T11:26:05.536Z,42.60
2019-05-13T11:28:35.212Z,42.80
2019-05-13T11:31:04.984Z,42.10
2019-05-13T11:33:34.764Z,41.90
2019-05-13T11:36:04.722Z,41.90
2019-05-13T11:38:35.448Z,41.60
2019-05-13T11:41:05.325Z,41.80
2019-05-13T11:43:35.031Z,41.30
2019-05-13T11:46:04.866Z,42.00
2019-05-13T11:48:34.569Z,42.00
2019-05-13T11:51:04.517Z,41.90
2019-05-13T11:53:37.475Z,42.10
2019-05-13T11:56:05.739Z,42.40
2019-05-13T11:58:35.454Z,42.20
2019-05-13T12:01:05.895Z,42.30
2019-05-13T12:03:35.696Z,42.50
2019-05-13T12:06:05.636Z,42.40
2019-05-13T12:08:35.411Z,41.20
2019-05-13T12:11:06.432Z,40.60
2019-05-13T12:13:37.125Z,37.40
2019-05-13T12:16:06.917Z,38.40
2019-05-13T12:18:43.158Z,36.50
2019-05-13T12:21:08.081Z,38.80
2019-05-13T12:23:37.816Z,38.40
2019-05-13T12:26:07.589Z,38.50
2019-05-13T12:28:37.387Z,36.60
2019-05-13T12:31:07.143Z,34.90
2019-05-13T12:33:36.944Z,33.70
2019-05-13T12:36:07.763Z,31.70
2019-05-13T12:38:37.506Z,34.70
2019-05-13T12:41:07.619Z,34.70
2019-05-13T12:43:37.361Z,35.30
2019-05-13T12:46:07.547Z,33.80
2019-05-13T12:48:37.357Z,35.90
2019-05-13T12:51:07.091Z,34.30
2019-05-13T12:53:36.870Z,32.70
2019-05-13T12:56:07.012Z,33.80
2019-05-13T12:58:36.736Z,34.70
2019-05-13T13:01:06.590Z,33.80
2019-05-13T13:03:36.430Z,33.80
2019-05-13T13:06:39.576Z,34.40
2019-05-13T13:08:43.550Z,34.90
2019-05-13T13:11:09.225Z,34.90
2019-05-13T13:13:57.981Z,35.50
2019-05-13T13:16:12.623Z,35.00
2019-05-13T13:18:43.534Z,35.40
2019-05-13T13:21:14.783Z,35.50
2019-05-13T13:23:44.723Z,35.80
2019-05-13T13:26:16.212Z,35.40
2019-05-13T13:28:54.994Z,35.60
2019-05-13T13:31:25.145Z,35.50
2019-05-13T13:33:55.145Z,35.10
2019-05-13T13:36:24.514Z,33.70
2019-05-13T13:38:56.179Z,31.60
2019-05-13T13:41:26.094Z,33.40
2019-05-13T13:43:55.801Z,33.30
2019-05-13T13:46:36.307Z,33.30
2019-05-13T13:48:56.999Z,34.00
2019-05-13T13:51:27.260Z,34.00
2019-05-13T13:53:57.170Z,33.30
2019-05-13T13:56:27.950Z,33.60
2019-05-13T13:58:57.770Z,34.20
2019-05-13T14:01:27.768Z,34.20
2019-05-13T14:03:57.750Z,32.50
2019-05-13T14:09:01.391Z,33.40
2019-05-13T14:11:37.338Z,33.40
2019-05-13T14:14:09.583Z,33.50
2019-05-13T14:16:41.980Z,33.50
2019-05-13T14:19:11.043Z,33.60
2019-05-13T14:21:41.636Z,33.60
2019-05-13T14:24:12.223Z,33.80
2019-05-13T14:26:43.404Z,33.80
2019-05-13T14:29:13.427Z,34.00
2019-05-13T14:31:43.481Z,34.00
2019-05-13T14:34:13.286Z,34.20
2019-05-13T14:36:43.038Z,34.30
2019-05-13T14:39:12.769Z,34.60
2019-05-13T14:41:42.739Z,34.60
2019-05-13T14:44:12.689Z,34.70
2019-05-13T14:46:47.502Z,32.30
2019-05-13T14:49:13.939Z,30.20
2019-05-13T14:51:43.829Z,32.90
2019-05-13T14:54:13.664Z,33.00
2019-05-13T14:56:43.444Z,32.80
2019-05-13T14:59:13.603Z,32.60
2019-05-13T15:01:43.467Z,32.60
2019-05-13T15:04:13.161Z,32.50
2019-05-13T15:06:43.002Z,32.80
2019-05-13T15:09:12.911Z,30.30
2019-05-13T15:11:42.826Z,29.10
2019-05-13T15:14:12.678Z,30.00
2019-05-13T15:16:42.676Z,29.80
2019-05-13T15:19:12.408Z,30.50
2019-05-13T15:21:42.200Z,30.60
2019-05-13T15:24:12.689Z,30.40
2019-05-13T15:26:43.005Z,30.00
2019-05-13T15:29:13.019Z,30.00
2019-05-13T15:31:42.907Z,29.90
2019-05-13T15:34:12.737Z,30.30
2019-05-13T15:36:42.482Z,30.70
2019-05-13T15:39:12.167Z,30.60
2019-05-13T15:41:42.204Z,30.10
2019-05-13T15:44:12.079Z,30.70
2019-05-13T15:46:41.969Z,30.70
2019-05-13T15:49:12.518Z,30.00
2019-05-13T15:51:42.482Z,30.90
2019-05-13T15:54:15.603Z,31.10
2019-05-13T15:56:43.761Z,31.20
2019-05-13T15:59:13.529Z,31.20
2019-05-13T16:01:43.247Z,31.40
2019-05-13T16:04:33.021Z,31.40
2019-05-13T16:06:44.581Z,31.70
2019-05-13T16:09:14.363Z,31.90
2019-05-13T16:11:44.364Z,32.10
2019-05-13T16:14:14.227Z,32.30
2019-05-13T16:16:44.019Z,32.50
2019-05-13T16:19:13.781Z,32.80
2019-05-13T16:21:43.560Z,32.80
2019-05-13T16:24:13.609Z,32.90
2019-05-13T16:26:43.371Z,33.10
2019-05-13T16:29:13.228Z,33.20
2019-05-13T16:31:43.088Z,33.40
2019-05-13T16:34:13.491Z,33.50
2019-05-13T16:36:43.572Z,33.60
2019-05-13T16:39:13.459Z,33.70
2019-05-13T16:41:43.179Z,33.80
2019-05-13T16:44:13.011Z,34.00
2019-05-13T16:46:42.780Z,34.00
2019-05-13T16:49:12.656Z,34.20
2019-05-13T16:51:42.839Z,34.30
2019-05-13T16:54:12.609Z,34.40
2019-05-13T16:56:42.501Z,34.50
2019-05-13T16:59:12.425Z,34.60
2019-05-13T17:01:43.200Z,34.60
2019-05-13T17:04:12.916Z,34.70
2019-05-13T17:06:42.723Z,34.90
2019-05-13T17:09:12.513Z,35.20
2019-05-13T17:11:42.300Z,35.30
2019-05-13T17:14:12.052Z,35.50
2019-05-13T17:16:41.851Z,35.70
2019-05-13T17:19:12.257Z,35.90
2019-05-13T17:21:43.082Z,36.10
2019-05-13T17:24:12.794Z,36.40
2019-05-13T17:26:42.689Z,36.30
2019-05-13T17:29:12.390Z,36.40
2019-05-13T17:31:42.056Z,36.60
2019-05-13T17:34:12.181Z,36.70
2019-05-13T17:36:42.241Z,36.80
2019-05-13T17:39:12.756Z,36.90
2019-05-13T17:41:42.490Z,37.00
2019-05-13T17:44:12.197Z,37.10
2019-05-13T17:46:42.161Z,37.20
2019-05-13T17:49:12.117Z,37.30
2019-05-13T17:51:42.476Z,37.30
2019-05-13T17:54:12.546Z,37.50
2019-05-13T17:56:42.228Z,37.70
2019-05-13T17:59:11.992Z,37.90
2019-05-13T18:01:41.792Z,38.00
2019-05-13T18:04:12.052Z,38.00
2019-05-13T18:06:42.298Z,38.20
2019-05-13T18:09:12.265Z,38.30
2019-05-13T18:11:42.065Z,38.40
2019-05-13T18:14:11.950Z,38.60
2019-05-13T18:16:42.037Z,38.70
2019-05-13T18:19:12.209Z,38.70
2019-05-13T18:21:42.552Z,38.90
2019-05-13T18:24:12.407Z,38.70
2019-05-13T18:26:43.161Z,38.70
2019-05-13T18:29:12.953Z,38.70
2019-05-13T18:31:42.715Z,38.80
2019-05-13T18:34:12.514Z,38.80
2019-05-13T18:36:42.774Z,38.90
2019-05-13T18:39:12.712Z,38.90
2019-05-13T18:41:42.465Z,38.30
2019-05-13T18:44:12.516Z,38.00
2019-05-13T18:46:42.405Z,38.10
2019-05-13T18:49:12.352Z,38.40
2019-05-13T18:51:42.433Z,38.60
2019-05-13T18:54:12.357Z,38.70
2019-05-13T18:56:42.283Z,38.90
2019-05-13T18:59:12.705Z,38.80
2019-05-13T19:01:44.172Z,39.00
2019-05-13T19:04:13.933Z,39.10
2019-05-13T19:06:51.648Z,39.10
2019-05-13T19:09:21.797Z,39.20
2019-05-13T19:11:51.659Z,39.30
2019-05-13T19:14:21.530Z,39.40
2019-05-13T19:16:51.334Z,39.50
2019-05-13T19:19:22.950Z,39.50
2019-05-13T19:21:52.804Z,39.70
2019-05-13T19:24:22.655Z,39.80
2019-05-13T19:26:52.459Z,39.90
2019-05-13T19:29:22.198Z,40.10
2019-05-13T19:31:51.950Z,40.20
2019-05-13T19:34:21.865Z,40.10
2019-05-13T19:36:51.722Z,40.30
2019-05-13T19:39:21.714Z,40.40
2019-05-13T19:41:51.651Z,40.40
2019-05-13T19:44:22.057Z,40.50
2019-05-13T19:46:52.422Z,40.60
2019-05-13T19:49:32.157Z,40.60
2019-05-13T19:51:53.811Z,40.70
2019-05-13T19:54:23.535Z,40.70
2019-05-13T19:56:53.313Z,40.80
2019-05-13T19:59:23.082Z,40.80
2019-05-13T20:01:52.844Z,40.80
2019-05-13T20:04:22.573Z,40.90
2019-05-13T20:06:52.265Z,41.00
2019-05-13T20:09:21.965Z,41.10
2019-05-13T20:11:55.292Z,41.00
2019-05-13T20:14:23.393Z,41.00
2019-05-13T20:16:53.165Z,41.10
2019-05-13T20:19:23.043Z,41.10
2019-05-13T20:21:52.736Z,41.10
2019-05-13T20:24:22.451Z,41.30
2019-05-13T20:26:52.305Z,41.30
2019-05-13T20:29:22.012Z,41.40
2019-05-13T20:31:51.913Z,41.50
2019-05-13T20:34:22.255Z,41.10
2019-05-13T20:36:52.012Z,41.00
2019-05-13T20:39:22.468Z,41.00
2019-05-13T20:41:55.709Z,41.10
2019-05-13T20:44:23.792Z,41.20
2019-05-13T20:46:53.557Z,41.30
2019-05-13T20:49:23.259Z,41.30
2019-05-13T20:51:52.949Z,41.30
2019-05-13T20:54:22.652Z,41.30
2019-05-13T20:56:52.419Z,41.40
2019-05-13T20:59:22.184Z,41.40
2019-05-13T21:01:51.957Z,41.40
2019-05-13T21:04:21.775Z,41.50
2019-05-13T21:06:51.727Z,41.50
2019-05-13T21:09:21.598Z,41.60
2019-05-13T21:11:51.608Z,41.50
2019-05-13T21:14:21.705Z,41.60
2019-05-13T21:16:53.559Z,41.60
2019-05-13T21:19:23.013Z,41.60
2019-05-13T21:21:52.742Z,41.70
2019-05-13T21:24:22.604Z,41.80
2019-05-13T21:26:52.270Z,41.80
2019-05-13T21:29:22.296Z,41.80
2019-05-13T21:31:52.945Z,41.80
2019-05-13T21:34:22.845Z,41.80
2019-05-13T21:36:52.621Z,41.80
2019-05-13T21:39:22.447Z,41.90
2019-05-13T21:41:52.145Z,41.90
2019-05-13T21:44:21.856Z,41.80
2019-05-13T21:46:51.705Z,41.80
2019-05-13T21:49:21.601Z,41.60
2019-05-13T21:51:52.159Z,41.60
2019-05-13T21:54:22.077Z,41.60
2019-05-13T21:56:51.897Z,41.50
2019-05-13T21:59:23.313Z,41.50
2019-05-13T22:01:53.255Z,41.50
2019-05-13T22:04:23.200Z,41.50
2019-05-13T22:06:52.986Z,41.50
2019-05-13T22:09:22.765Z,41.70
2019-05-13T22:11:52.587Z,41.90
2019-05-13T22:14:22.465Z,42.00
2019-05-13T22:16:52.214Z,42.20
2019-05-13T22:19:22.291Z,42.30
2019-05-13T22:21:52.100Z,42.30
2019-05-13T22:24:22.173Z,42.40
2019-05-13T22:26:51.965Z,42.50
2019-05-13T22:29:23.271Z,42.50
2019-05-13T22:31:53.034Z,42.50
2019-05-13T22:34:23.742Z,42.50
2019-05-13T22:36:53.566Z,42.60
2019-05-13T22:39:23.358Z,42.50
2019-05-13T22:41:53.161Z,42.40
2019-05-13T22:44:22.928Z,42.40
2019-05-13T22:46:52.644Z,42.40
2019-05-13T22:49:22.356Z,42.50
2019-05-13T22:51:52.148Z,42.60
2019-05-13T22:54:22.032Z,42.60
2019-05-13T22:56:52.331Z,42.60
2019-05-13T22:59:22.137Z,42.70
2019-05-13T23:01:52.396Z,42.70
2019-05-13T23:04:22.286Z,42.70
2019-05-13T23:06:52.122Z,42.80
2019-05-13T23:09:21.912Z,42.70
2019-05-13T23:11:51.627Z,42.80
2019-05-13T23:14:21.979Z,42.80
2019-05-13T23:16:51.877Z,42.80
2019-05-13T23:19:21.851Z,42.80
2019-05-13T23:21:51.552Z,42.80
2019-05-13T23:24:21.821Z,42.80
2019-05-13T23:26:51.781Z,42.90
2019-05-13T23:29:21.645Z,42.90
2019-05-13T23:31:52.397Z,42.90
2019-05-13T23:34:22.414Z,42.90
2019-05-13T23:36:52.173Z,43.00
2019-05-13T23:39:21.962Z,43.00
2019-05-13T23:41:52.232Z,43.00
2019-05-13T23:44:27.707Z,43.00
2019-05-13T23:46:53.665Z,43.00
2019-05-13T23:49:23.456Z,43.10
2019-05-13T23:51:53.237Z,43.10
2019-05-13T23:54:22.954Z,43.10
2019-05-13T23:56:52.815Z,43.00
2019-05-13T23:59:22.700Z,43.20
